ADDS METAR Data INFO
IDs: Format: Raw Decoded Include TAF

Data at: 1004 UTC 12 Dec 2017

KCNK 120955Z AUTO 33006KT 10SM CLR M03/M06 A3039 RMK AO2 SLP300 T10281056
KCNK 120855Z AUTO 33007KT 10SM CLR M02/M06 A3039 RMK AO2 SLP297 T10221056 53003
KCNK 120755Z AUTO 33010KT 10SM CLR 01/M05 A3038 RMK AO2 SLP294 T00061050
KCNK 120655Z AUTO 34008KT 10SM CLR 01/M05 A3037 RMK AO2 SLP292 T00061050
KCNK 120555Z AUTO 35015G23KT 10SM CLR 03/M04 A3038 RMK AO2 SLP290 T00281044 10067 20028 401390011 53021
KCNK 120455Z AUTO 34011KT 10SM OVC038 04/M03 A3036 RMK AO2 SLP283 T00441033
KCNK 120355Z AUTO 34017G22KT 10SM OVC038 06/M01 A3033 RMK AO2 SLP273 T00561011
KCNK 120255Z AUTO 34015G24KT 10SM OVC038 06/M01 A3031 RMK AO2 SLP270 T00561011 51023
KCNK 120155Z AUTO 35018G26KT 10SM OVC038 06/M01 A3030 RMK AO2 PK WND 35030/0142 SLP268 T00611006
KCNK 120055Z AUTO 34017G22KT 10SM OVC047 07/M02 A3027 RMK AO2 PK WND 34032/0026 SLP259 T00671017
KCNK 112355Z AUTO 34018G26KT 10SM BKN049 OVC120 07/M02 A3024 RMK AO2 PK WND 34031/2258 SLP248 T00671017 10139 20067 51033
KCNK 112255Z AUTO 34022G29KT 10SM OVC050 08/M02 A3021 RMK AO2 PK WND 32034/2201 SLP236 T00831022
KCNK 112155Z AUTO 34027G32KT 10SM OVC060 09/M03 A3017 RMK AO2 PK WND 34035/2128 SLP223 T00941028
KCNK 112055Z AUTO 34020G31KT 10SM OVC060 11/M03 A3014 RMK AO2 PK WND 32036/2012 SLP211 T01061033 53014
KCNK 111955Z AUTO 33026G34KT 10SM SCT065 12/M03 A3012 RMK AO2 PK WND 32036/1924 SLP204 T01171033
KCNK 111855Z AUTO 34020G30KT 10SM CLR 13/M06 A3010 RMK AO2 PK WND 33035/1842 SLP195 T01281056
KCNK 111755Z AUTO 32025G33KT 10SM CLR 13/M08 A3010 RMK AO2 PK WND 32036/1701 SLP193 T01331078 10133 20011 52005
KCNK 111655Z AUTO 32020G26KT 10SM CLR 13/M09 A3009 RMK AO2 PK WND 33026/1654 SLP191 T01331094
KCNK 111555Z AUTO 31012KT 10SM CLR 12/M09 A3008 RMK AO2 SLP189 T01171094
KCNK 111455Z AUTO 28010KT 10SM CLR 07/M08 A3008 RMK AO2 SLP189 T00671083 51006
KCNK 111355Z AUTO 26012KT 10SM CLR 04/M10 A3008 RMK AO2 SLP191 T00391100
KCNK 111255Z AUTO 26010KT 10SM CLR 02/M11 A3007 RMK AO2 SLP188 T00171106
KCNK 111155Z AUTO 28013KT 10SM CLR 02/M11 A3006 RMK AO2 SLP185 T00221106 10056 20022 55004
KCNK 111055Z AUTO 27012KT 10SM CLR 03/M11 A3005 RMK AO2 SLP178 T00281111
KCNK 110955Z AUTO 27011KT 10SM CLR 03/M11 A3007 RMK AO2 SLP183 T00281106
KCNK 110855Z AUTO 27010KT 10SM CLR 03/M09 A3008 RMK AO2 SLP184 T00331094 56011
KCNK 110755Z AUTO 26011KT 10SM CLR 05/M10 A3008 RMK AO2 SLP185 T00501100
KCNK 110655Z AUTO 25011KT 10SM CLR 05/M09 A3010 RMK AO2 SLP192 T00501094
KCNK 110555Z AUTO 25009KT 10SM CLR 06/M09 A3011 RMK AO2 SLP197 T00561094 10111 20056 401830011 58007
KCNK 110455Z AUTO 25010KT 10SM CLR 07/M09 A3012 RMK AO2 SLP201 T00671094
KCNK 110355Z AUTO 24008KT 10SM CLR 07/M09 A3013 RMK AO2 SLP205 T00721089
KCNK 110255Z AUTO 27008KT 10SM CLR 08/M09 A3013 RMK AO2 SLP207 T00831094 58005
KCNK 110155Z AUTO 26008KT 10SM CLR 09/M09 A3014 RMK AO2 SLP213 T00891094
KCNK 110055Z AUTO 25009KT 10SM CLR 11/M10 A3015 RMK AO2 SLP214 T01061100
KCNK 102355Z AUTO 24007KT 10SM CLR 10/M10 A3015 RMK AO2 SLP214 T01001100 10183 20100 58001
KCNK 102255Z AUTO 27007KT 10SM CLR 14/M11 A3015 RMK AO2 SLP213 T01391111